Time;durP1;ratioP1;P1;durP2;ratioP2;P2;SDS_P1;SDS_P2;PMS_P1;PMS_P2;Temp;Humidity;BMP_temperature;BMP_pressure;BME280_temperature;BME280_humidity;BME280_pressure;Samples;Min_cycle;Max_cycle;Signal;HPM_P1;HPM_P2
2022/09/10 00:01:11;;;;;;;2.85;1.60;;;;;;;;;;5053182;28;20478;-74
2022/09/10 00:03:37;;;;;;;9.13;2.45;;;;;;;;;;5053087;28;20022;-74
2022/09/10 00:06:04;;;;;;;7.38;2.28;;;;;;;;;;5053052;28;20385;-74
2022/09/10 00:08:32;;;;;;;6.53;2.00;;;;;;;;;;5053043;28;20032;-75
2022/09/10 00:11:03;;;;;;;5.05;2.15;;;;;;;;;;5035238;28;20049;-74
2022/09/10 00:13:29;;;;;;;6.28;2.35;;;;;;;;;;5053322;28;20025;-74
2022/09/10 00:15:55;;;;;;;6.05;2.15;;;;;;;;;;5053263;28;20052;-74
2022/09/10 00:18:22;;;;;;;6.90;2.15;;;;;;;;;;5053288;28;20100;-74
2022/09/10 00:20:49;;;;;;;8.55;2.47;;;;;;;;;;5052981;28;20054;-74
2022/09/10 00:23:19;;;;;;;7.05;2.00;;;;;;;;;;5052873;28;20032;-74
2022/09/10 00:25:46;;;;;;;7.65;2.15;;;;;;;;;;5054914;28;20025;-72
2022/09/10 00:28:12;;;;;;;10.02;2.33;;;;;;;;;;5057262;28;20025;-74
2022/09/10 00:30:42;;;;;;;8.73;2.20;;;;;;;;;;5056960;28;20025;-74
2022/09/10 00:33:08;;;;;;;8.55;2.97;;;;;;;;;;5056931;28;20047;-74
2022/09/10 00:35:35;;;;;;;8.02;2.20;;;;;;;;;;5056880;28;20509;-74
2022/09/10 00:38:01;;;;;;;8.48;3.08;;;;;;;;;;5057603;28;20021;-75
2022/09/10 00:40:28;;;;;;;6.38;2.42;;;;;;;;;;5056751;28;20087;-75
2022/09/10 00:42:54;;;;;;;5.93;1.92;;;;;;;;;;5056611;28;20037;-74
2022/09/10 00:45:25;;;;;;;8.30;2.30;;;;;;;;;;5056638;28;20100;-74
2022/09/10 00:47:50;;;;;;;;;;;;;;;;;;5057290;28;20028;-75
2022/09/10 00:50:21;;;;;;;8.20;2.55;;;;;;;;;;5056542;28;20292;-74
2022/09/10 00:52:48;;;;;;;6.88;2.28;;;;;;;;;;5056813;28;20057;-75
2022/09/10 00:55:15;;;;;;;9.00;2.10;;;;;;;;;;5056802;28;20104;-73
2022/09/10 00:57:42;;;;;;;6.07;2.20;;;;;;;;;;5056248;28;20409;-75
2022/09/10 01:00:10;;;;;;;6.72;2.50;;;;;;;;;;5056420;28;20427;-73
2022/09/10 01:02:36;;;;;;;9.88;2.42;;;;;;;;;;5056561;28;20444;-74
2022/09/10 01:05:03;;;;;;;6.45;2.30;;;;;;;;;;5056227;28;20110;-75
2022/09/10 01:07:31;;;;;;;11.18;2.28;;;;;;;;;;5056807;28;20043;-75
2022/09/10 01:09:59;;;;;;;8.50;2.33;;;;;;;;;;5056271;28;20022;-75
2022/09/10 01:12:34;;;;;;;9.00;2.50;;;;;;;;;;5056162;28;20107;-74
2022/09/10 01:15:04;;;;;;;8.43;2.10;;;;;;;;;;5056684;28;20055;-74
2022/09/10 01:17:30;;;;;;;6.22;2.55;;;;;;;;;;5056637;28;20021;-74
2022/09/10 01:20:14;;;;;;;9.75;2.33;;;;;;;;;;5056538;28;20021;-74
2022/09/10 01:22:41;;;;;;;6.97;2.45;;;;;;;;;;5055902;28;20029;-75
2022/09/10 01:25:13;;;;;;;7.82;2.20;;;;;;;;;;5038025;28;20025;-74
2022/09/10 01:27:44;;;;;;;6.13;2.60;;;;;;;;;;5056434;28;20017;-74
2022/09/10 01:30:18;;;;;;;7.22;2.50;;;;;;;;;;5056131;28;20047;-74
2022/09/10 01:32:44;;;;;;;9.80;2.70;;;;;;;;;;5056147;28;20025;-74
2022/09/10 01:35:14;;;;;;;8.98;1.90;;;;;;;;;;5056268;28;20025;-72
2022/09/10 01:37:42;;;;;;;9.90;2.85;;;;;;;;;;5037413;28;20036;-74
2022/09/10 01:40:09;;;;;;;7.78;2.72;;;;;;;;;;5055638;28;20021;-75
2022/09/10 01:42:36;;;;;;;8.98;2.33;;;;;;;;;;5055785;28;20037;-74
2022/09/10 01:45:02;;;;;;;7.00;2.42;;;;;;;;;;5055579;28;20066;-75
2022/09/10 01:47:55;;;;;;;8.15;2.45;;;;;;;;;;5055567;28;20438;-74
2022/09/10 01:50:21;;;;;;;8.80;2.38;;;;;;;;;;5051130;28;20121;-74
2022/09/10 01:53:07;;;;;;;6.97;2.05;;;;;;;;;;5055374;28;20393;-74
2022/09/10 01:55:40;;;;;;;7.35;2.60;;;;;;;;;;5038475;28;20044;-75
2022/09/10 01:58:09;;;;;;;7.45;2.38;;;;;;;;;;5055172;28;20128;-74
2022/09/10 02:00:37;;;;;;;9.30;2.80;;;;;;;;;;5055543;28;20496;-75
2022/09/10 02:03:06;;;;;;;6.85;2.10;;;;;;;;;;5055104;28;20033;-75
2022/09/10 02:05:34;;;;;;;6.90;2.08;;;;;;;;;;5055392;28;20104;-74
2022/09/10 02:08:02;;;;;;;16.60;2.88;;;;;;;;;;5055423;28;20070;-74
2022/09/10 02:10:28;;;;;;;8.18;2.60;;;;;;;;;;5055085;28;20017;-75
2022/09/10 02:12:54;;;;;;;7.18;2.28;;;;;;;;;;5055295;28;20078;-74
2022/09/10 02:15:21;;;;;;;7.22;3.35;;;;;;;;;;5054992;28;20021;-74
2022/09/10 02:17:48;;;;;;;7.80;2.55;;;;;;;;;;5054890;28;20021;-74
2022/09/10 02:20:14;;;;;;;6.65;2.20;;;;;;;;;;5054891;28;20508;-73
2022/09/10 02:22:48;;;;;;;8.90;2.28;;;;;;;;;;5054995;28;20067;-74
2022/09/10 02:25:14;;;;;;;6.30;2.63;;;;;;;;;;5055106;28;20086;-75
2022/09/10 02:27:40;;;;;;;9.32;3.05;;;;;;;;;;5054715;28;20465;-74
2022/09/10 02:30:07;;;;;;;7.90;2.83;;;;;;;;;;5054708;28;20053;-73
2022/09/10 02:32:33;;;;;;;5.82;2.65;;;;;;;;;;5054646;28;20029;-74
2022/09/10 02:34:59;;;;;;;6.97;2.53;;;;;;;;;;5054885;28;20028;-75
2022/09/10 02:37:25;;;;;;;8.02;2.97;;;;;;;;;;5055394;28;20029;-72
2022/09/10 02:39:51;;;;;;;8.73;2.45;;;;;;;;;;5054519;28;20032;-75
2022/09/10 02:42:17;;;;;;;8.70;2.33;;;;;;;;;;5054362;28;20029;-75
2022/09/10 02:44:44;;;;;;;7.20;2.38;;;;;;;;;;5054427;28;20469;-74
2022/09/10 02:47:10;;;;;;;8.85;2.58;;;;;;;;;;5054668;28;20051;-73
2022/09/10 02:49:36;;;;;;;9.57;2.28;;;;;;;;;;5053904;28;20017;-74
2022/09/10 02:52:02;;;;;;;6.88;2.65;;;;;;;;;;5054557;28;20025;-72
2022/09/10 02:54:28;;;;;;;5.75;2.45;;;;;;;;;;5054519;28;20192;-74
2022/09/10 02:56:55;;;;;;;9.95;2.97;;;;;;;;;;5054192;28;20032;-75
2022/09/10 02:59:21;;;;;;;9.80;2.55;;;;;;;;;;5053776;28;20037;-75
2022/09/10 03:01:48;;;;;;;6.43;2.40;;;;;;;;;;5054079;28;20033;-74
2022/09/10 03:04:15;;;;;;;5.68;2.40;;;;;;;;;;5053990;28;20029;-74
2022/09/10 03:06:42;;;;;;;5.20;2.40;;;;;;;;;;5053932;28;20025;-74
2022/09/10 03:09:08;;;;;;;7.13;2.72;;;;;;;;;;5054216;28;20376;-74
2022/09/10 03:11:38;;;;;;;10.30;3.33;;;;;;;;;;5054215;28;20053;-73
2022/09/10 03:14:04;;;;;;;;;;;;;;;;;;5054656;28;20025;-74
2022/09/10 03:16:30;;;;;;;8.00;2.63;;;;;;;;;;5053812;28;19905;-73
2022/09/10 03:18:56;;;;;;;10.50;2.70;;;;;;;;;;5054012;28;20032;-73
2022/09/10 03:21:24;;;;;;;7.85;3.10;;;;;;;;;;5053727;28;20362;-74
2022/09/10 03:23:51;;;;;;;7.32;2.72;;;;;;;;;;5053885;28;20053;-74
2022/09/10 03:26:18;;;;;;;10.15;2.60;;;;;;;;;;5053921;28;20060;-75
2022/09/10 03:28:45;;;;;;;8.15;2.60;;;;;;;;;;5053923;28;20044;-73
2022/09/10 03:31:12;;;;;;;7.43;2.80;;;;;;;;;;5053582;28;20024;-74
2022/09/10 03:33:38;;;;;;;10.02;3.35;;;;;;;;;;5053542;28;20455;-73
2022/09/10 03:36:04;;;;;;;8.90;3.05;;;;;;;;;;5053801;28;20025;-74
2022/09/10 03:38:31;;;;;;;7.93;3.30;;;;;;;;;;5053991;28;20029;-74
2022/09/10 03:40:57;;;;;;;10.35;3.78;;;;;;;;;;5053670;28;20025;-73
2022/09/10 03:43:24;;;;;;;5.43;2.83;;;;;;;;;;5053377;28;20029;-74
2022/09/10 03:45:50;;;;;;;8.73;3.03;;;;;;;;;;5053643;28;20021;-74
2022/09/10 03:48:20;;;;;;;10.90;3.50;;;;;;;;;;5053613;28;20036;-74
2022/09/10 03:50:46;;;;;;;9.53;3.17;;;;;;;;;;5053609;28;20024;-73
2022/09/10 03:53:16;;;;;;;13.00;3.80;;;;;;;;;;5053254;28;20082;-75
2022/09/10 03:55:43;;;;;;;9.80;3.50;;;;;;;;;;5053845;28;20102;-75
2022/09/10 03:58:09;;;;;;;12.35;3.25;;;;;;;;;;5053024;28;20119;-73
2022/09/10 04:00:35;;;;;;;7.32;3.13;;;;;;;;;;5053157;28;20423;-74
2022/09/10 04:03:02;;;;;;;6.97;2.95;;;;;;;;;;5053101;28;20021;-75
2022/09/10 04:05:28;;;;;;;7.97;2.80;;;;;;;;;;5053122;28;20024;-73
2022/09/10 04:07:58;;;;;;;7.03;2.85;;;;;;;;;;5053825;28;20048;-74
2022/09/10 04:10:27;;;;;;;10.17;3.00;;;;;;;;;;5053370;28;20432;-73
2022/09/10 04:12:53;;;;;;;8.77;3.05;;;;;;;;;;5053680;28;20025;-73
2022/09/10 04:15:19;;;;;;;10.85;3.22;;;;;;;;;;5053338;28;20033;-74
2022/09/10 04:17:46;;;;;;;7.15;2.80;;;;;;;;;;5053269;28;20021;-74
2022/09/10 04:20:12;;;;;;;7.25;3.10;;;;;;;;;;5053279;28;20031;-74
2022/09/10 04:22:38;;;;;;;8.52;3.65;;;;;;;;;;5052882;28;20024;-74
2022/09/10 04:25:04;;;;;;;10.25;3.60;;;;;;;;;;5052962;28;20029;-74
2022/09/10 04:27:30;;;;;;;10.05;3.40;;;;;;;;;;5052963;28;20098;-74
2022/09/10 04:29:56;;;;;;;10.10;3.40;;;;;;;;;;5035023;28;20064;-75
2022/09/10 04:32:22;;;;;;;16.77;4.03;;;;;;;;;;5052873;28;20029;-74
2022/09/10 04:34:48;;;;;;;8.88;3.47;;;;;;;;;;5052841;28;20036;-73
2022/09/10 04:37:14;;;;;;;13.77;4.70;;;;;;;;;;5053396;28;20021;-75
2022/09/10 04:39:42;;;;;;;9.73;3.70;;;;;;;;;;5053089;28;20028;-75
2022/09/10 04:42:08;;;;;;;17.27;4.30;;;;;;;;;;5052759;28;20021;-75
2022/09/10 04:44:35;;;;;;;7.90;3.53;;;;;;;;;;5052709;28;20025;-74
2022/09/10 04:47:01;;;;;;;7.75;3.08;;;;;;;;;;5053026;28;20092;-75
2022/09/10 04:49:27;;;;;;;8.73;3.78;;;;;;;;;;5053259;28;20086;-75
2022/09/10 04:51:53;;;;;;;10.30;3.50;;;;;;;;;;5052699;28;20021;-74
2022/09/10 04:54:19;;;;;;;10.77;3.60;;;;;;;;;;5052641;28;20385;-73
2022/09/10 04:56:46;;;;;;;7.30;3.45;;;;;;;;;;5052916;28;20025;-74
2022/09/10 04:59:12;;;;;;;7.35;3.75;;;;;;;;;;5052432;28;20053;-75
2022/09/10 05:01:38;;;;;;;10.23;3.25;;;;;;;;;;5052601;28;20416;-74
2022/09/10 05:04:04;;;;;;;13.70;3.90;;;;;;;;;;5052782;28;20485;-75
2022/09/10 05:06:30;;;;;;;6.93;3.67;;;;;;;;;;5052800;28;20067;-75
2022/09/10 05:08:57;;;;;;;8.38;2.90;;;;;;;;;;5034700;28;20044;-74
2022/09/10 05:11:24;;;;;;;7.35;3.60;;;;;;;;;;5052533;28;20025;-74
2022/09/10 05:13:50;;;;;;;9.60;3.72;;;;;;;;;;5055622;28;20032;-74
2022/09/10 05:16:16;;;;;;;9.18;3.22;;;;;;;;;;5056137;28;20036;-75
2022/09/10 05:18:42;;;;;;;9.48;3.53;;;;;;;;;;5056330;28;20021;-74
2022/09/10 05:21:09;;;;;;;7.13;3.13;;;;;;;;;;5056351;28;20031;-73
2022/09/10 05:23:35;;;;;;;9.25;3.55;;;;;;;;;;5055934;28;20021;-73
2022/09/10 05:26:01;;;;;;;14.25;3.78;;;;;;;;;;5055947;28;20079;-73
2022/09/10 05:28:27;;;;;;;9.00;3.60;;;;;;;;;;5055880;28;20036;-74
2022/09/10 05:30:53;;;;;;;7.75;3.28;;;;;;;;;;5056175;28;20025;-74
2022/09/10 05:33:19;;;;;;;12.02;4.47;;;;;;;;;;5055758;28;20542;-74
2022/09/10 05:35:47;;;;;;;9.68;3.20;;;;;;;;;;5056070;28;20040;-75
2022/09/10 05:38:13;;;;;;;12.07;3.60;;;;;;;;;;5056522;28;20096;-74
2022/09/10 05:40:41;;;;;;;10.20;3.88;;;;;;;;;;5055673;28;20112;-74
2022/09/10 05:43:07;;;;;;;9.05;3.80;;;;;;;;;;5055819;28;20125;-76
2022/09/10 05:45:33;;;;;;;8.00;3.45;;;;;;;;;;5055550;28;20529;-75
2022/09/10 05:47:59;;;;;;;9.25;3.55;;;;;;;;;;5055516;28;20050;-74
2022/09/10 05:50:25;;;;;;;8.57;3.13;;;;;;;;;;5055484;28;20520;-74
2022/09/10 05:52:51;;;;;;;10.52;3.33;;;;;;;;;;5056007;28;20534;-74
2022/09/10 05:55:17;;;;;;;9.30;3.63;;;;;;;;;;5055408;28;20029;-73
2022/09/10 05:57:43;;;;;;;6.05;2.95;;;;;;;;;;5055144;28;20056;-76
2022/09/10 06:00:09;;;;;;;6.85;3.50;;;;;;;;;;5055321;28;20029;-75
2022/09/10 06:02:36;;;;;;;9.57;3.72;;;;;;;;;;5055719;28;20021;-74
2022/09/10 06:05:02;;;;;;;11.70;4.03;;;;;;;;;;5055104;28;20052;-74
2022/09/10 06:07:29;;;;;;;11.32;3.25;;;;;;;;;;5055398;28;20024;-74
2022/09/10 06:09:56;;;;;;;8.95;3.38;;;;;;;;;;5055704;28;20021;-75
2022/09/10 06:12:22;;;;;;;8.85;3.35;;;;;;;;;;5055296;28;20021;-74
2022/09/10 06:14:48;;;;;;;10.60;4.18;;;;;;;;;;5055038;28;20025;-74
2022/09/10 06:17:18;;;;;;;9.50;3.83;;;;;;;;;;5055018;28;20048;-75
2022/09/10 06:19:44;;;;;;;10.07;4.13;;;;;;;;;;5054963;28;20048;-74
2022/09/10 06:22:10;;;;;;;13.90;4.32;;;;;;;;;;5036987;28;20028;-74
2022/09/10 06:24:37;;;;;;;6.53;3.20;;;;;;;;;;5055131;28;20179;-74
2022/09/10 06:27:04;;;;;;;9.88;4.03;;;;;;;;;;5055059;28;20089;-76
2022/09/10 06:29:30;;;;;;;8.75;3.58;;;;;;;;;;5054807;28;20108;-75
2022/09/10 06:31:56;;;;;;;10.82;3.65;;;;;;;;;;5054737;28;20057;-75
2022/09/10 06:34:22;;;;;;;6.63;3.67;;;;;;;;;;5054704;28;20060;-75
2022/09/10 06:36:48;;;;;;;8.27;3.95;;;;;;;;;;5055191;28;20407;-74
2022/09/10 06:39:15;;;;;;;8.52;3.83;;;;;;;;;;5037243;28;20037;-74
2022/09/10 06:41:42;;;;;;;6.50;3.33;;;;;;;;;;5054790;28;20388;-74
2022/09/10 06:44:08;;;;;;;6.78;3.88;;;;;;;;;;5054381;28;20447;-74
2022/09/10 06:46:34;;;;;;;6.85;3.20;;;;;;;;;;5054433;28;20063;-75
2022/09/10 06:49:02;;;;;;;8.80;3.08;;;;;;;;;;5054393;28;20029;-74
2022/09/10 06:51:28;;;;;;;6.68;3.10;;;;;;;;;;5054328;28;20135;-74
2022/09/10 06:53:55;;;;;;;6.97;3.60;;;;;;;;;;5054289;28;20032;-74
2022/09/10 06:56:22;;;;;;;6.85;3.10;;;;;;;;;;5054286;28;20075;-74
2022/09/10 06:58:48;;;;;;;9.68;3.70;;;;;;;;;;5053941;28;20057;-74
2022/09/10 07:01:18;;;;;;;7.45;3.42;;;;;;;;;;5054146;28;20051;-74
2022/09/10 07:03:44;;;;;;;7.03;3.38;;;;;;;;;;5054318;28;20078;-73
2022/09/10 07:06:14;;;;;;;6.47;3.50;;;;;;;;;;5054257;28;20534;-74
2022/09/10 07:08:40;;;;;;;;;;;;;;;;;;5054490;28;20489;-74
2022/09/10 07:11:11;;;;;;;8.00;4.25;;;;;;;;;;5054510;28;19909;-74
2022/09/10 07:13:38;;;;;;;6.88;3.50;;;;;;;;;;5053927;28;20171;-74
2022/09/10 07:16:04;;;;;;;9.13;4.18;;;;;;;;;;5053878;28;20033;-75
2022/09/10 07:18:30;;;;;;;8.93;4.25;;;;;;;;;;5054415;28;20469;-74
2022/09/10 07:21:12;;;;;;;7.68;3.58;;;;;;;;;;5053818;28;20035;-75
2022/09/10 07:23:38;;;;;;;12.55;4.00;;;;;;;;;;5053695;28;20061;-75
2022/09/10 07:26:09;;;;;;;7.70;4.10;;;;;;;;;;5053680;28;20028;-74
2022/09/10 07:28:35;;;;;;;7.68;4.05;;;;;;;;;;5054248;28;20029;-75
2022/09/10 07:31:30;;;;;;;8.63;4.03;;;;;;;;;;5053588;28;20025;-75
2022/09/10 07:33:57;;;;;;;8.30;4.50;;;;;;;;;;5032493;28;20538;-74
2022/09/10 07:36:23;;;;;;;6.80;4.35;;;;;;;;;;5053236;28;20028;-75
2022/09/10 07:38:53;;;;;;;8.95;4.32;;;;;;;;;;5054274;28;20111;-75
2022/09/10 07:41:19;;;;;;;9.85;4.65;;;;;;;;;;5053627;28;20411;-74
2022/09/10 07:43:45;;;;;;;8.82;3.72;;;;;;;;;;5053592;28;20025;-75
2022/09/10 07:46:20;;;;;;;8.13;4.40;;;;;;;;;;5053370;28;20029;-74
2022/09/10 07:48:49;;;;;;;10.75;4.50;;;;;;;;;;5053642;28;20381;-74
2022/09/10 07:51:17;;;;;;;7.77;3.83;;;;;;;;;;5053317;28;20025;-74
2022/09/10 07:53:44;;;;;;;7.57;4.18;;;;;;;;;;5053239;28;20055;-74
2022/09/10 07:56:10;;;;;;;8.43;4.40;;;;;;;;;;5053257;28;20032;-73
2022/09/10 07:58:37;;;;;;;9.48;4.00;;;;;;;;;;5053072;28;20060;-74
2022/09/10 08:01:07;;;;;;;8.43;4.13;;;;;;;;;;5053131;28;20024;-73
2022/09/10 08:03:34;;;;;;;9.13;4.20;;;;;;;;;;5053683;28;20445;-74
2022/09/10 08:06:00;;;;;;;8.18;4.40;;;;;;;;;;5053050;28;20113;-74
2022/09/10 08:08:34;;;;;;;8.25;4.20;;;;;;;;;;5053355;28;20028;-74
2022/09/10 08:11:19;;;;;;;7.57;4.35;;;;;;;;;;5053254;28;20029;-74
2022/09/10 08:13:49;;;;;;;8.40;3.92;;;;;;;;;;5053613;28;20033;-74
2022/09/10 08:16:17;;;;;;;8.45;4.07;;;;;;;;;;5053080;28;20025;-74
2022/09/10 08:18:44;;;;;;;9.02;4.35;;;;;;;;;;5052950;28;20035;-73
2022/09/10 08:21:10;;;;;;;6.18;3.88;;;;;;;;;;5053196;28;20028;-73
2022/09/10 08:23:38;;;;;;;9.77;4.88;;;;;;;;;;5053188;28;20037;-73
2022/09/10 08:26:05;;;;;;;8.00;3.90;;;;;;;;;;5053208;28;20017;-73
2022/09/10 08:28:31;;;;;;;8.30;4.22;;;;;;;;;;5052994;28;20029;-74
2022/09/10 08:31:00;;;;;;;10.80;4.07;;;;;;;;;;5052891;28;20021;-73
2022/09/10 08:33:27;;;;;;;6.70;3.73;;;;;;;;;;5052948;28;20025;-71
2022/09/10 08:35:57;;;;;;;10.27;4.82;;;;;;;;;;5053142;28;20037;-75
2022/09/10 08:38:30;;;;;;;8.55;3.53;;;;;;;;;;5053387;28;20025;-75
2022/09/10 08:40:57;;;;;;;6.72;3.42;;;;;;;;;;5053092;28;20029;-74
2022/09/10 08:43:30;;;;;;;5.50;3.50;;;;;;;;;;5052703;28;20536;-75
2022/09/10 08:45:56;;;;;;;7.40;3.58;;;;;;;;;;5053063;28;20033;-74
2022/09/10 08:48:23;;;;;;;5.70;3.20;;;;;;;;;;5054963;28;20481;-74
2022/09/10 08:51:09;;;;;;;7.57;3.80;;;;;;;;;;5056891;28;20052;-73
2022/09/10 08:53:42;;;;;;;5.80;3.22;;;;;;;;;;5056227;28;20040;-72
2022/09/10 08:56:13;;;;;;;6.82;3.25;;;;;;;;;;5056559;28;20029;-75
2022/09/10 08:59:05;;;;;;;4.93;2.85;;;;;;;;;;5056393;28;20076;-74
2022/09/10 09:01:35;;;;;;;7.22;3.65;;;;;;;;;;5018351;28;20041;-76
2022/09/10 09:04:01;;;;;;;;;;;;;;;;;;5056973;28;20028;-75
2022/09/10 09:06:32;;;;;;;4.88;2.50;;;;;;;;;;5056276;28;20315;-71
2022/09/10 09:08:59;;;;;;;6.60;3.28;;;;;;;;;;5056536;28;20025;-74
2022/09/10 09:11:25;;;;;;;5.90;3.30;;;;;;;;;;5056947;28;20066;-75
2022/09/10 09:13:54;;;;;;;7.95;3.45;;;;;;;;;;5056422;28;20487;-73
2022/09/10 09:16:31;;;;;;;5.07;3.30;;;;;;;;;;5057162;28;20067;-73
2022/09/10 09:19:27;;;;;;;5.30;3.30;;;;;;;;;;5056877;28;20044;-74
2022/09/10 09:21:54;;;;;;;9.48;3.03;;;;;;;;;;5035685;28;20120;-73
2022/09/10 09:24:39;;;;;;;5.93;3.00;;;;;;;;;;5055887;28;20033;-72
2022/09/10 09:27:08;;;;;;;6.30;2.92;;;;;;;;;;5055957;28;20104;-73
2022/09/10 09:29:43;;;;;;;5.55;3.10;;;;;;;;;;5056018;28;20018;-73
2022/09/10 09:32:11;;;;;;;8.70;3.55;;;;;;;;;;5056107;28;20029;-73
2022/09/10 09:35:04;;;;;;;6.65;2.78;;;;;;;;;;5055818;28;20029;-73
2022/09/10 09:37:32;;;;;;;4.18;2.65;;;;;;;;;;5051677;28;20056;-74
2022/09/10 09:40:13;;;;;;;4.60;2.60;;;;;;;;;;5055551;28;20433;-74
2022/09/10 09:42:46;;;;;;;6.32;2.65;;;;;;;;;;5055563;28;20080;-72
2022/09/10 09:45:22;;;;;;;5.10;3.22;;;;;;;;;;5055606;28;20017;-73
2022/09/10 09:47:53;;;;;;;6.07;3.15;;;;;;;;;;5037433;28;20489;-73
2022/09/10 09:50:19;;;;;;;3.97;2.92;;;;;;;;;;5055508;28;20025;-72
2022/09/10 09:52:45;;;;;;;5.65;2.78;;;;;;;;;;5055468;28;20071;-72
2022/09/10 09:55:17;;;;;;;5.72;2.92;;;;;;;;;;5037573;28;20025;-73
2022/09/10 09:57:43;;;;;;;6.25;2.53;;;;;;;;;;5055142;28;20489;-73
2022/09/10 10:00:32;;;;;;;4.95;2.90;;;;;;;;;;5055080;28;20018;-73
2022/09/10 10:03:04;;;;;;;6.00;2.47;;;;;;;;;;5055836;28;20104;-71
2022/09/10 10:05:30;;;;;;;6.70;2.83;;;;;;;;;;5055517;28;20025;-72
2022/09/10 10:07:56;;;;;;;3.95;2.15;;;;;;;;;;5054370;28;20017;-72
2022/09/10 10:10:23;;;;;;;5.20;2.47;;;;;;;;;;5052816;28;20104;-72
2022/09/10 10:12:51;;;;;;;4.88;2.15;;;;;;;;;;5055188;28;20033;-71
2022/09/10 10:15:35;;;;;;;4.63;2.33;;;;;;;;;;5053843;28;20045;-71
2022/09/10 10:18:21;;;;;;;3.70;2.13;;;;;;;;;;5054963;28;20021;-72
2022/09/10 10:20:48;;;;;;;3.55;2.30;;;;;;;;;;5054993;28;20443;-72
2022/09/10 10:23:35;;;;;;;3.38;1.65;;;;;;;;;;5054496;28;20025;-72
2022/09/10 10:26:15;;;;;;;3.15;1.58;;;;;;;;;;5054790;28;20071;-72
2022/09/10 10:28:44;;;;;;;4.18;1.88;;;;;;;;;;5054700;28;20025;-71
2022/09/10 10:31:10;;;;;;;3.13;1.95;;;;;;;;;;5054766;28;20047;-73
2022/09/10 10:33:40;;;;;;;4.18;1.92;;;;;;;;;;5055016;28;20032;-72
2022/09/10 10:36:22;;;;;;;4.28;1.90;;;;;;;;;;5054956;28;20083;-72
2022/09/10 10:38:54;;;;;;;4.50;1.90;;;;;;;;;;5055126;28;20039;-72
2022/09/10 10:41:23;;;;;;;4.78;2.17;;;;;;;;;;5054561;28;20040;-71
2022/09/10 10:43:55;;;;;;;4.20;1.98;;;;;;;;;;5054985;28;20105;-72
2022/09/10 10:46:22;;;;;;;3.97;2.20;;;;;;;;;;5054562;28;20021;-72
2022/09/10 10:48:55;;;;;;;5.43;1.90;;;;;;;;;;5054454;28;20024;-72
2022/09/10 10:51:24;;;;;;;4.35;2.30;;;;;;;;;;5054908;28;20049;-72
2022/09/10 10:53:50;;;;;;;5.70;2.08;;;;;;;;;;5054301;28;20489;-73
2022/09/10 10:56:23;;;;;;;6.20;1.80;;;;;;;;;;5054222;28;20481;-72
2022/09/10 10:58:49;;;;;;;4.10;1.83;;;;;;;;;;5054050;28;20119;-73
2022/09/10 11:01:15;;;;;;;4.05;1.92;;;;;;;;;;5054155;28;20028;-72
2022/09/10 11:03:47;;;;;;;5.25;2.00;;;;;;;;;;5054594;28;20029;-73
2022/09/10 11:06:17;;;;;;;5.80;1.85;;;;;;;;;;5054166;28;20095;-75
2022/09/10 11:08:45;;;;;;;2.58;1.70;;;;;;;;;;5054003;28;20124;-73
2022/09/10 11:11:20;;;;;;;4.68;1.75;;;;;;;;;;5053412;28;20021;-73
2022/09/10 11:13:51;;;;;;;3.85;1.48;;;;;;;;;;5053950;28;20481;-75
2022/09/10 11:16:33;;;;;;;4.70;1.90;;;;;;;;;;5054216;28;20036;-73
2022/09/10 11:19:06;;;;;;;2.42;1.48;;;;;;;;;;5054447;28;20480;-75
2022/09/10 11:21:36;;;;;;;3.45;1.73;;;;;;;;;;5054374;28;20039;-73
2022/09/10 11:24:15;;;;;;;4.15;1.58;;;;;;;;;;5053688;28;20036;-73
2022/09/10 11:26:47;;;;;;;4.72;1.80;;;;;;;;;;5054301;28;20028;-74
2022/09/10 11:29:13;;;;;;;4.53;1.88;;;;;;;;;;5054186;28;20013;-72
2022/09/10 11:31:43;;;;;;;3.65;2.25;;;;;;;;;;5053867;28;20027;-73
2022/09/10 11:34:25;;;;;;;3.25;1.75;;;;;;;;;;5054100;28;20021;-73
2022/09/10 11:36:57;;;;;;;4.38;1.73;;;;;;;;;;5053777;28;20103;-74
2022/09/10 11:39:29;;;;;;;2.60;1.70;;;;;;;;;;5053937;28;20025;-75
2022/09/10 11:41:57;;;;;;;3.42;1.45;;;;;;;;;;5053855;28;20086;-74
2022/09/10 11:44:35;;;;;;;3.47;1.33;;;;;;;;;;5053321;28;20021;-72
2022/09/10 11:47:13;;;;;;;4.78;1.63;;;;;;;;;;5053641;28;20056;-73
2022/09/10 11:49:56;;;;;;;3.20;1.30;;;;;;;;;;5053578;28;20458;-73
2022/09/10 11:52:24;;;;;;;3.70;1.80;;;;;;;;;;5053888;28;20021;-73
2022/09/10 11:54:51;;;;;;;4.82;1.60;;;;;;;;;;5053712;28;20078;-73
2022/09/10 11:57:17;;;;;;;3.00;1.30;;;;;;;;;;5053183;28;20059;-74
2022/09/10 11:59:53;;;;;;;4.45;1.40;;;;;;;;;;5053640;28;20037;-73
2022/09/10 12:02:25;;;;;;;2.30;1.38;;;;;;;;;;5034875;28;20036;-73
2022/09/10 12:04:57;;;;;;;3.25;1.40;;;;;;;;;;5053217;28;20057;-74
2022/09/10 12:07:42;;;;;;;1.90;1.17;;;;;;;;;;5053082;28;20083;-73
2022/09/10 12:10:27;;;;;;;4.72;1.65;;;;;;;;;;5053238;28;20032;-72
2022/09/10 12:12:53;;;;;;;3.30;1.50;;;;;;;;;;5053040;28;20021;-73
2022/09/10 12:15:24;;;;;;;4.40;1.85;;;;;;;;;;5053384;28;20021;-73
2022/09/10 12:18:03;;;;;;;3.40;1.70;;;;;;;;;;5053363;28;20397;-73
2022/09/10 12:20:38;;;;;;;2.40;1.60;;;;;;;;;;5053825;28;20017;-74
2022/09/10 12:23:05;;;;;;;2.67;1.17;;;;;;;;;;5056948;28;20078;-72
2022/09/10 12:25:32;;;;;;;2.50;1.30;;;;;;;;;;5057249;28;20052;-73
2022/09/10 12:27:59;;;;;;;2.95;1.63;;;;;;;;;;5057294;28;20123;-75
2022/09/10 12:30:29;;;;;;;1.35;1.02;;;;;;;;;;5056995;28;20484;-74
2022/09/10 12:32:59;;;;;;;;;;;;;;;;;;5057392;28;20036;-74
2022/09/10 12:35:31;;;;;;;2.97;1.40;;;;;;;;;;5057546;28;20349;-74
2022/09/10 12:38:16;;;;;;;4.57;1.38;;;;;;;;;;5057931;28;20481;-74
2022/09/10 12:40:43;;;;;;;4.53;1.40;;;;;;;;;;5056790;28;20032;-74
2022/09/10 12:43:28;;;;;;;2.50;1.10;;;;;;;;;;5057209;28;20028;-72
2022/09/10 12:46:06;;;;;;;3.42;1.45;;;;;;;;;;5056709;28;20032;-73
2022/09/10 12:48:34;;;;;;;2.03;1.10;;;;;;;;;;5056772;28;20457;-72
2022/09/10 12:51:04;;;;;;;1.98;1.23;;;;;;;;;;5056563;28;20018;-73
2022/09/10 12:53:45;;;;;;;3.90;1.33;;;;;;;;;;5056777;28;20025;-73
2022/09/10 12:56:22;;;;;;;1.33;1.20;;;;;;;;;;5056985;28;20032;-74
2022/09/10 12:59:01;;;;;;;2.53;1.27;;;;;;;;;;5056266;28;20049;-72
2022/09/10 13:01:36;;;;;;;3.03;1.15;;;;;;;;;;5056590;28;20473;-73
2022/09/10 13:04:02;;;;;;;3.35;1.05;;;;;;;;;;5056109;28;20025;-73
2022/09/10 13:06:41;;;;;;;8.07;4.50;;;;;;;;;;5056113;28;20033;-74
2022/09/10 13:09:19;;;;;;;1.38;1.10;;;;;;;;;;5056601;28;20021;-72
2022/09/10 13:11:48;;;;;;;1.83;1.20;;;;;;;;;;5056053;28;20056;-74
2022/09/10 13:14:18;;;;;;;1.10;1.00;;;;;;;;;;5055851;28;20025;-73
2022/09/10 13:16:44;;;;;;;2.43;1.20;;;;;;;;;;5055967;28;20337;-74
2022/09/10 13:19:12;;;;;;;2.63;1.00;;;;;;;;;;5056075;28;20259;-74
2022/09/10 13:21:46;;;;;;;2.92;1.10;;;;;;;;;;5055941;28;20610;-73
2022/09/10 13:24:31;;;;;;;2.92;1.27;;;;;;;;;;5055955;28;20032;-74
2022/09/10 13:27:04;;;;;;;3.10;1.20;;;;;;;;;;5055782;28;20029;-73
2022/09/10 13:29:39;;;;;;;2.53;1.20;;;;;;;;;;5056034;28;20029;-75
2022/09/10 13:32:25;;;;;;;2.10;1.00;;;;;;;;;;5055433;28;20021;-73
2022/09/10 13:35:10;;;;;;;2.38;1.30;;;;;;;;;;5036941;28;20017;-74
2022/09/10 13:37:56;;;;;;;1.02;0.80;;;;;;;;;;5055986;28;20033;-74
2022/09/10 13:40:42;;;;;;;2.30;0.90;;;;;;;;;;5056593;28;20113;-74
2022/09/10 13:43:20;;;;;;;3.42;1.15;;;;;;;;;;5055861;28;20060;-73
2022/09/10 13:45:48;;;;;;;2.10;0.82;;;;;;;;;;5055647;28;20101;-73
2022/09/10 13:48:18;;;;;;;1.88;1.17;;;;;;;;;;5055615;28;20032;-74
2022/09/10 13:50:59;;;;;;;2.13;1.02;;;;;;;;;;5055556;28;20428;-73
2022/09/10 13:53:26;;;;;;;1.80;0.90;;;;;;;;;;5055811;28;20037;-73
2022/09/10 13:56:00;;;;;;;2.38;1.10;;;;;;;;;;5055542;28;20029;-73
2022/09/10 13:58:27;;;;;;;1.83;1.00;;;;;;;;;;5055531;28;20057;-73
2022/09/10 14:00:55;;;;;;;1.85;1.30;;;;;;;;;;5055959;28;20028;-73
2022/09/10 14:03:29;;;;;;;3.80;1.10;;;;;;;;;;5055562;28;20086;-72
2022/09/10 14:06:03;;;;;;;1.75;1.08;;;;;;;;;;5055870;28;20472;-73
2022/09/10 14:08:34;;;;;;;1.48;1.25;;;;;;;;;;5055380;28;20025;-73
2022/09/10 14:11:12;;;;;;;3.70;1.67;;;;;;;;;;5055220;28;20021;-73
2022/09/10 14:13:42;;;;;;;2.17;1.23;;;;;;;;;;5055160;28;20029;-72
2022/09/10 14:16:11;;;;;;;3.67;1.85;;;;;;;;;;5055111;28;20107;-73
2022/09/10 14:18:58;;;;;;;2.63;1.33;;;;;;;;;;5055555;28;20034;-74
2022/09/10 14:21:27;;;;;;;2.65;1.38;;;;;;;;;;5055625;28;20028;-72
2022/09/10 14:23:54;;;;;;;5.85;1.83;;;;;;;;;;5054897;28;20032;-73
2022/09/10 14:26:25;;;;;;;3.67;1.63;;;;;;;;;;5055173;28;20071;-73
2022/09/10 14:28:51;;;;;;;2.45;1.23;;;;;;;;;;5055421;28;20461;-73
2022/09/10 14:31:20;;;;;;;2.35;1.60;;;;;;;;;;5055064;28;20071;-73
2022/09/10 14:33:46;;;;;;;2.80;1.10;;;;;;;;;;5055312;28;20029;-72
2022/09/10 14:36:18;;;;;;;2.20;1.00;;;;;;;;;;5054969;28;20050;-72
2022/09/10 14:38:51;;;;;;;4.38;1.50;;;;;;;;;;5055721;28;20047;-73
2022/09/10 14:41:21;;;;;;;2.35;1.38;;;;;;;;;;5054902;28;20033;-73
2022/09/10 14:43:47;;;;;;;4.25;1.20;;;;;;;;;;5054699;28;20025;-73
2022/09/10 14:46:33;;;;;;;2.20;1.17;;;;;;;;;;5054422;28;20033;-74
2022/09/10 14:49:03;;;;;;;1.95;1.08;;;;;;;;;;5054366;28;20028;-73
2022/09/10 14:51:29;;;;;;;6.25;1.40;;;;;;;;;;5054416;28;20031;-73
2022/09/10 14:53:56;;;;;;;1.17;0.90;;;;;;;;;;5036773;28;20033;-72
2022/09/10 14:56:25;;;;;;;1.80;0.90;;;;;;;;;;5054307;28;20494;-73
2022/09/10 14:58:56;;;;;;;2.78;1.33;;;;;;;;;;5054090;28;20513;-73